Fire Weather Observation
Issued by NWS Grand Junction, CO

Home | Current Version | Previous Version | Text Only | Print | Product List | Glossary Off
Versions: 1 2 3 4 5 6 7 8 9 10 11 12 13 14 15 16 17 18 19 20 21 22 23 24 25 26 27 28 29 30 31 32 33 34 35 36 37 38 39 40 41 42 43 44 45 46 47 48 49 50

000
SHUS65 KGJT 192013
FWOGJT

DAILY FIRE WEATHER OBSERVATION
NATIONAL WEATHER SERVICE GRAND JUNCTION CO
212 PM  SAT APR 19 2014

STATE OF THE WEATHER (W)               2
DRY BULB TEMPERATURE                   60   DEGREES FAHRENHEIT
RELATIVE HUMIDITY (RH)                 60   PERCENT
LIGHTNING ACTIVITY LEVEL
  (LAL - MIDNIGHT TO 2 PM)             1
WIND DIRECTION                         315  DEGREES (C IF CALM)
WIND SPEED                             8    MPH
MAX TEMP (2 PM - 2 PM)                 76   DEGREES FAHRENHEIT
MIN TEMP (2 PM - 2 PM)                 50   DEGREES FAHRENHEIT
MAX RH (2 PM - 2 PM)                   89   PERCENT
MIN RH (2 PM - 2 PM)                   13   PERCENT
PCPN DURATION                          4.7  HOURS
PCPN AMT (2 PM - 2 PM)                 0.06 INCHES
LAL (2 PM - 2 PM)                      1

$$

METAR KGJT 191953Z 31007KT 10SM FEW031 FEW038 BKN085 16/08 A3008
      RMK AO2 SLP143 T01560078



USA.gov is the U.S. government's official web portal to all federal, state and local government web resources and services.